IDPK1: Verdigris River, Independence

Data processed at Fri Jun 05 2020 23:55


All information presented herein is the property of the government of the United States of America and may be revised or deleted at any time without prior notice.
Dissemination of this information without the expressed written consent of the Public Affairs Office, Tulsa District U.S. Army Corps of Engineers is strictly prohibited.
These data are gathered electronically and, as presented, have not undergone any form of quality control. These data are not guaranteed to be valid or correct.
Go to home page.
Go to station list.
Go to home page.

Upstream stations:

Downstream station:
Previous Day
Next Day
Current Day
    
SHEF ID:       IDPK1     VERDIGRIS R AT INDEPENDENCE, KS
STATION TYPE:  
Regulating: Stage =    30.00, Flow =    22721

               PRECIP     STAGE  RIV-FLOW  BAT-LOAD
                   in        ft       cfs      volt
              Ccp-Rev   Ccp-Rev   Ccp-Rev   Ccp-Rev
(US/Central)
06/05 00:00      0.00     12.69      5690     12.71
06/05 01:00      0.00     12.70      5698     12.71
06/05 02:00      0.00     12.69      5690     12.71
06/05 03:00      0.00     12.70      5698     12.65
06/05 04:00      0.00     12.69      5690     12.65
06/05 05:00      0.00     12.68      5683     12.65
06/05 06:00      0.00     12.71      5706     12.65
06/05 07:00      0.00     12.68      5683     12.65
06/05 08:00      0.00     12.68      5683     12.71
06/05 09:00      0.00     12.68      5683     13.12
06/05 10:00      0.00     12.68      5683     13.36
06/05 11:00      0.00     12.67      5675     13.48
06/05 12:00      0.00     12.69      5690     13.42
06/05 13:00      0.00     12.65      5659     13.36
06/05 14:00      0.00     12.68      5683     13.30
06/05 15:00      0.00     12.65      5659     13.07
06/05 16:00      0.00     12.66      5667     13.00
06/05 17:00      0.00     12.64      5652     13.07
06/05 18:00      0.00     12.46      5512     13.00
06/05 19:00      0.00     12.16      5283     13.00
06/05 20:00      0.00     11.85      5050     12.89
06/05 21:00      0.00     11.56      4837     12.83
06/05 22:00      0.00     11.34      4677     12.77
06/05 23:00      0.00     11.15      4540     12.77